createdAt,value
2019-02-14T00:02:28.546Z,17.98
2019-02-14T00:04:57.568Z,20.32
2019-02-14T00:07:26.591Z,16.65
2019-02-14T00:20:32.857Z,15.98
2019-02-14T00:23:01.858Z,15.43
2019-02-14T00:25:30.844Z,31.70
2019-02-14T00:27:59.922Z,34.63
2019-02-14T00:30:28.925Z,24.12
2019-02-14T00:32:57.966Z,28.35
2019-02-14T00:35:26.987Z,22.48
2019-02-14T00:37:55.978Z,21.68
2019-02-14T00:40:25.020Z,19.87
2019-02-14T00:42:54.003Z,25.32
2019-02-14T00:45:23.018Z,24.98
2019-02-14T00:47:52.035Z,27.87
2019-02-14T00:50:21.055Z,22.10
2019-02-14T00:52:50.042Z,25.88
2019-02-14T00:55:19.042Z,16.57
2019-02-14T00:57:49.945Z,28.67
2019-02-14T01:00:18.952Z,27.40
2019-02-14T01:02:47.932Z,24.70
2019-02-14T01:05:16.921Z,25.45
2019-02-14T01:07:45.983Z,24.63
2019-02-14T01:10:14.993Z,16.17
2019-02-14T01:12:44.176Z,14.18
2019-02-14T01:15:14.229Z,16.75
2019-02-14T01:17:43.215Z,20.37
2019-02-14T01:20:12.215Z,18.67
2019-02-14T01:22:41.211Z,25.48
2019-02-14T01:25:10.200Z,24.92
2019-02-14T01:27:39.222Z,17.07
2019-02-14T01:30:09.238Z,22.58
2019-02-14T01:32:38.217Z,23.87
2019-02-14T01:35:07.476Z,25.57
2019-02-14T01:37:36.456Z,27.10
2019-02-14T01:40:05.703Z,25.08
2019-02-14T01:42:34.700Z,28.32
2019-02-14T01:45:03.738Z,25.12
2019-02-14T01:47:32.732Z,23.15
2019-02-14T01:50:01.748Z,27.60
2019-02-14T01:52:30.744Z,23.32
2019-02-14T01:54:59.721Z,23.95
2019-02-14T01:57:28.701Z,18.25
2019-02-14T01:59:57.707Z,25.17
2019-02-14T02:02:26.754Z,22.95
2019-02-14T02:04:55.768Z,27.87
2019-02-14T02:07:24.757Z,21.17
2019-02-14T02:09:55.499Z,24.85
2019-02-14T02:12:24.488Z,18.55
2019-02-14T02:14:53.480Z,22.07
2019-02-14T02:17:22.475Z,19.62
2019-02-14T02:19:51.569Z,24.85
2019-02-14T02:22:20.567Z,17.27
2019-02-14T02:24:49.579Z,22.65
2019-02-14T02:27:18.561Z,24.87
2019-02-14T02:29:47.554Z,27.95
2019-02-14T02:32:16.544Z,28.83
2019-02-14T02:34:45.616Z,16.42
2019-02-14T02:37:14.613Z,28.02
2019-02-14T02:39:43.574Z,24.72
2019-02-14T02:42:12.567Z,25.52
2019-02-14T02:44:41.573Z,19.32
2019-02-14T02:47:10.578Z,21.30
2019-02-14T02:49:39.538Z,27.62
2019-02-14T02:52:08.524Z,27.60
2019-02-14T02:54:37.527Z,26.05
2019-02-14T02:57:06.521Z,28.75
2019-02-14T02:59:35.572Z,16.60
2019-02-14T03:02:04.559Z,20.12
2019-02-14T03:04:33.534Z,14.90
2019-02-14T03:07:02.522Z,22.48
2019-02-14T03:09:31.513Z,24.12
2019-02-14T03:12:00.544Z,19.35
2019-02-14T03:14:29.501Z,17.42
2019-02-14T03:16:58.475Z,28.57
2019-02-14T03:19:27.467Z,23.47
2019-02-14T03:21:56.503Z,19.30
2019-02-14T03:24:25.502Z,14.93
2019-02-14T03:26:54.513Z,19.67
2019-02-14T03:29:23.506Z,22.45
2019-02-14T03:31:52.527Z,16.93
2019-02-14T03:34:21.518Z,21.02
2019-02-14T03:36:50.523Z,25.02
2019-02-14T03:39:19.511Z,31.50
2019-02-14T03:41:48.490Z,45.52
2019-02-14T03:44:17.478Z,42.85
2019-02-14T03:46:46.480Z,31.45
2019-02-14T03:49:15.466Z,28.92
2019-02-14T03:51:44.492Z,30.88
2019-02-14T03:54:13.470Z,33.90
2019-02-14T03:56:42.452Z,20.20
2019-02-14T03:59:11.464Z,31.57
2019-02-14T04:01:40.470Z,31.60
2019-02-14T04:04:09.462Z,26.62
2019-02-14T04:06:38.465Z,28.40
2019-02-14T04:09:08.618Z,33.45
2019-02-14T04:11:37.649Z,25.23
2019-02-14T04:14:06.654Z,24.10
2019-02-14T04:16:35.649Z,31.15
2019-02-14T04:19:04.644Z,18.95
2019-02-14T04:21:33.623Z,15.28
2019-02-14T04:24:02.622Z,18.30
2019-02-14T04:26:31.635Z,18.17
2019-02-14T04:29:00.644Z,27.60
2019-02-14T04:31:29.623Z,17.48
2019-02-14T04:33:58.609Z,14.17
2019-02-14T04:36:35.538Z,34.75
2019-02-14T04:38:58.363Z,24.40
2019-02-14T04:41:27.355Z,15.70
2019-02-14T04:43:56.405Z,20.65
2019-02-14T04:46:25.402Z,27.27
2019-02-14T04:48:54.386Z,26.30
2019-02-14T04:51:23.394Z,29.67
2019-02-14T04:53:52.407Z,29.77
2019-02-14T04:56:21.405Z,30.17
2019-02-14T04:58:50.398Z,26.60
2019-02-14T05:01:19.424Z,30.20
2019-02-14T05:03:48.399Z,28.25
2019-02-14T05:06:17.392Z,30.32
2019-02-14T05:08:46.395Z,30.75
2019-02-14T05:11:15.392Z,29.23
2019-02-14T05:13:44.376Z,17.48
2019-02-14T05:16:13.371Z,17.00
2019-02-14T05:18:42.392Z,21.33
2019-02-14T05:21:11.400Z,27.32
2019-02-14T05:23:40.420Z,25.57
2019-02-14T05:26:09.409Z,15.05
2019-02-14T05:28:38.403Z,20.85
2019-02-14T05:31:07.391Z,18.57
2019-02-14T05:33:36.395Z,16.15
2019-02-14T05:36:05.399Z,17.87
2019-02-14T05:38:34.416Z,18.57
2019-02-14T05:41:03.455Z,22.65
2019-02-14T05:43:32.429Z,40.43
2019-02-14T05:46:01.421Z,16.57
2019-02-14T05:48:30.432Z,27.20
2019-02-14T05:50:59.425Z,24.47
2019-02-14T05:53:28.506Z,30.62
2019-02-14T05:55:57.537Z,25.32
2019-02-14T05:58:26.540Z,17.82
2019-02-14T06:00:55.564Z,29.92
2019-02-14T06:03:24.568Z,17.95
2019-02-14T06:05:53.551Z,20.48
2019-02-14T06:08:23.526Z,16.77
2019-02-14T06:10:52.583Z,28.80
2019-02-14T06:13:21.572Z,24.12
2019-02-14T06:15:50.574Z,26.80
2019-02-14T06:18:19.585Z,19.57
2019-02-14T06:20:48.568Z,24.87
2019-02-14T06:23:17.610Z,22.52
2019-02-14T06:25:46.594Z,21.73
2019-02-14T06:28:15.683Z,22.35
2019-02-14T06:30:44.681Z,18.02
2019-02-14T06:33:13.685Z,15.00
2019-02-14T06:35:42.707Z,26.23
2019-02-14T06:38:11.729Z,16.15
2019-02-14T06:40:40.759Z,25.85
2019-02-14T06:43:09.786Z,16.02
2019-02-14T06:45:38.770Z,19.80
2019-02-14T06:48:07.781Z,16.20
2019-02-14T06:50:36.823Z,17.27
2019-02-14T06:53:05.813Z,23.77
2019-02-14T06:55:34.799Z,28.77
2019-02-14T06:58:03.834Z,20.25
2019-02-14T07:00:32.870Z,31.75
2019-02-14T07:03:01.832Z,21.97
2019-02-14T07:05:30.824Z,21.62
2019-02-14T07:07:59.845Z,22.77
2019-02-14T07:10:28.846Z,28.57
2019-02-14T07:12:57.838Z,18.17
2019-02-14T07:15:26.886Z,17.77
2019-02-14T07:17:55.859Z,20.55
2019-02-14T07:20:24.847Z,25.10
2019-02-14T07:22:53.860Z,19.23
2019-02-14T07:25:22.890Z,19.25
2019-02-14T07:27:51.922Z,22.32
2019-02-14T07:30:21.386Z,17.87
2019-02-14T07:32:50.415Z,22.90
2019-02-14T07:35:19.437Z,23.55
2019-02-14T07:37:48.408Z,21.27
2019-02-14T07:40:17.448Z,18.17
2019-02-14T07:42:46.433Z,16.07
2019-02-14T07:45:15.441Z,19.50
2019-02-14T07:47:44.437Z,17.62
2019-02-14T07:50:13.525Z,20.43
2019-02-14T07:52:42.534Z,22.05
2019-02-14T08:05:35.729Z,19.73
2019-02-14T08:08:04.721Z,21.02
2019-02-14T08:10:33.732Z,24.90
2019-02-14T08:13:02.730Z,23.32
2019-02-14T08:15:31.733Z,22.73
2019-02-14T08:18:00.764Z,24.63
2019-02-14T08:20:29.806Z,28.10
2019-02-14T08:22:58.786Z,28.35
2019-02-14T08:25:27.843Z,28.05
2019-02-14T08:27:56.886Z,31.97
2019-02-14T08:30:25.831Z,26.75
2019-02-14T08:32:54.862Z,33.55
2019-02-14T08:35:23.926Z,37.60
2019-02-14T08:37:54.004Z,34.10
2019-02-14T08:40:24.403Z,30.72
2019-02-14T08:42:53.421Z,41.30
2019-02-14T08:45:22.407Z,27.90
2019-02-14T08:47:51.420Z,33.35
2019-02-14T08:50:20.409Z,30.85
2019-02-14T08:52:49.412Z,32.03
2019-02-14T08:55:18.391Z,27.93
2019-02-14T08:57:47.407Z,28.32
2019-02-14T09:00:16.460Z,31.70
2019-02-14T09:02:45.442Z,27.25
2019-02-14T09:05:14.467Z,25.15
2019-02-14T09:07:43.505Z,25.88
2019-02-14T09:10:13.241Z,23.12
2019-02-14T09:12:42.208Z,27.27
2019-02-14T09:15:11.337Z,29.67
2019-02-14T09:17:40.385Z,25.70
2019-02-14T09:20:11.086Z,27.95
2019-02-14T09:22:40.112Z,24.05
2019-02-14T09:25:09.178Z,23.98
2019-02-14T09:27:38.170Z,22.25
2019-02-14T09:30:07.214Z,25.97
2019-02-14T09:32:36.210Z,21.73
2019-02-14T09:35:05.584Z,23.42
2019-02-14T09:37:34.590Z,20.15
2019-02-14T09:40:03.568Z,20.02
2019-02-14T09:42:32.582Z,19.70
2019-02-14T09:45:01.599Z,20.02
2019-02-14T09:47:30.614Z,18.77
2019-02-14T09:49:59.601Z,21.65
2019-02-14T09:52:28.667Z,17.60
2019-02-14T09:54:57.670Z,22.85
2019-02-14T09:57:26.650Z,23.45
2019-02-14T09:59:55.659Z,21.00
2019-02-14T10:02:25.891Z,20.02
2019-02-14T10:04:55.209Z,27.90
2019-02-14T10:07:24.244Z,23.18
2019-02-14T10:09:53.297Z,21.05
2019-02-14T10:12:22.277Z,19.67
2019-02-14T10:14:51.302Z,23.52
2019-02-14T10:17:22.176Z,23.83
2019-02-14T10:19:51.033Z,16.75
2019-02-14T10:22:20.075Z,19.87
2019-02-14T10:24:49.095Z,21.80
2019-02-14T10:27:18.106Z,21.12
2019-02-14T10:29:47.104Z,20.85
2019-02-14T10:32:16.221Z,19.62
2019-02-14T10:34:45.230Z,18.40
2019-02-14T10:37:14.256Z,20.60
2019-02-14T10:39:43.272Z,20.23
2019-02-14T10:42:12.318Z,18.80
2019-02-14T10:44:41.298Z,17.98
2019-02-14T10:47:10.302Z,18.25
2019-02-14T10:49:39.340Z,17.92
2019-02-14T10:52:08.340Z,14.18
2019-02-14T10:54:37.433Z,18.45
2019-02-14T10:57:06.490Z,18.80
2019-02-14T10:59:35.493Z,17.30
2019-02-14T11:02:04.514Z,14.50
2019-02-14T11:04:33.540Z,14.40
2019-02-14T11:07:02.543Z,16.93
2019-02-14T11:09:31.559Z,17.65
2019-02-14T11:12:00.561Z,16.65
2019-02-14T11:14:29.632Z,14.15
2019-02-14T11:16:58.641Z,14.68
2019-02-14T11:19:27.647Z,15.45
2019-02-14T11:21:56.630Z,15.35
2019-02-14T11:24:25.713Z,14.63
2019-02-14T11:26:54.650Z,16.62
2019-02-14T11:29:23.683Z,15.95
2019-02-14T11:31:52.685Z,15.72
2019-02-14T11:34:21.761Z,14.68
2019-02-14T11:36:50.758Z,12.58
2019-02-14T11:39:19.756Z,16.07
2019-02-14T11:41:48.782Z,15.30
2019-02-14T11:44:17.794Z,15.80
2019-02-14T11:46:51.488Z,11.57
2019-02-14T11:49:17.502Z,15.15
2019-02-14T11:51:46.526Z,12.18
2019-02-14T11:54:15.562Z,12.13
2019-02-14T11:56:44.544Z,13.38
2019-02-14T11:59:13.538Z,11.45
2019-02-14T12:01:42.571Z,12.45
2019-02-14T12:04:11.571Z,12.03
2019-02-14T12:06:40.648Z,10.53
2019-02-14T12:09:09.677Z,11.55
2019-02-14T12:11:38.838Z,12.23
2019-02-14T12:14:07.912Z,11.12
2019-02-14T12:16:36.940Z,10.28
2019-02-14T12:19:05.971Z,11.95
2019-02-14T12:21:34.995Z,9.55
2019-02-14T12:24:04.041Z,8.98
2019-02-14T12:26:33.047Z,10.88
2019-02-14T12:29:02.078Z,7.45
2019-02-14T12:31:31.097Z,7.67
2019-02-14T12:34:00.161Z,10.13
2019-02-14T12:36:29.144Z,9.83
2019-02-14T12:38:58.173Z,7.22
2019-02-14T12:41:27.248Z,7.80
2019-02-14T12:43:56.277Z,7.62
2019-02-14T12:46:25.309Z,6.55
2019-02-14T12:48:54.357Z,4.35
2019-02-14T12:51:23.376Z,3.15
2019-02-14T12:54:43.510Z,3.17
2019-02-14T12:57:13.110Z,4.70
2019-02-14T12:59:42.098Z,4.87
2019-02-14T13:02:11.171Z,3.35
2019-02-14T13:04:43.192Z,4.17
2019-02-14T13:07:12.412Z,4.40
2019-02-14T13:09:41.834Z,4.75
2019-02-14T13:12:11.046Z,5.22
2019-02-14T13:14:40.240Z,3.58
2019-02-14T13:17:09.436Z,4.72
2019-02-14T13:19:38.462Z,4.85
2019-02-14T13:22:07.827Z,3.45
2019-02-14T13:24:36.884Z,3.65
2019-02-14T13:27:06.000Z,3.58
2019-02-14T13:29:34.982Z,4.37
2019-02-14T13:32:03.993Z,4.87
2019-02-14T13:34:33.021Z,4.15
2019-02-14T13:37:02.339Z,3.72
2019-02-14T13:39:32.693Z,2.92
2019-02-14T13:42:01.882Z,3.30
2019-02-14T13:44:30.905Z,2.87
2019-02-14T13:46:59.967Z,4.87
2019-02-14T13:49:29.035Z,4.28
2019-02-14T13:51:58.054Z,3.65
2019-02-14T13:54:27.084Z,3.58
2019-02-14T13:56:56.093Z,4.45
2019-02-14T13:59:25.129Z,4.58
2019-02-14T14:01:54.150Z,3.27
2019-02-14T14:04:23.157Z,4.90
2019-02-14T14:06:52.192Z,3.72
2019-02-14T14:09:21.262Z,4.80
2019-02-14T14:11:50.255Z,4.17
2019-02-14T14:14:19.333Z,3.27
2019-02-14T14:16:48.332Z,4.30
2019-02-14T14:19:17.328Z,3.10
2019-02-14T14:21:46.365Z,3.83
2019-02-14T14:24:16.624Z,4.70
2019-02-14T14:26:45.607Z,4.20
2019-02-14T14:29:14.638Z,3.08
2019-02-14T14:31:43.659Z,2.77
2019-02-14T14:34:12.687Z,4.25
2019-02-14T14:36:41.710Z,3.70
2019-02-14T14:39:10.707Z,4.12
2019-02-14T14:41:39.723Z,3.65
2019-02-14T14:44:18.640Z,3.30
2019-02-14T14:47:00.332Z,4.33
2019-02-14T14:49:29.344Z,2.45
2019-02-14T14:51:58.428Z,5.78
2019-02-14T14:54:27.532Z,4.17
2019-02-14T14:56:56.578Z,2.90
2019-02-14T14:59:25.643Z,4.08
2019-02-14T15:01:54.641Z,3.58
2019-02-14T15:04:23.703Z,4.53
2019-02-14T15:06:52.709Z,4.05
2019-02-14T15:09:21.747Z,2.90
2019-02-14T15:11:50.913Z,3.87
2019-02-14T15:14:19.968Z,6.17
2019-02-14T15:16:48.966Z,4.17
2019-02-14T15:19:17.965Z,4.22
2019-02-14T15:21:47.785Z,3.87
2019-02-14T15:24:16.807Z,4.75
2019-02-14T15:26:45.875Z,3.85
2019-02-14T15:29:14.931Z,4.67
2019-02-14T15:31:43.948Z,3.33
2019-02-14T15:34:12.992Z,5.72
2019-02-14T15:36:42.020Z,4.03
2019-02-14T15:39:11.034Z,5.55
2019-02-14T15:41:40.026Z,3.30
2019-02-14T15:44:09.104Z,4.92
2019-02-14T15:46:38.212Z,8.50
2019-02-14T15:49:07.196Z,4.60
2019-02-14T15:51:36.232Z,4.60
2019-02-14T15:54:07.316Z,4.33
2019-02-14T15:56:36.120Z,3.05
2019-02-14T15:59:05.239Z,5.60
2019-02-14T16:01:34.294Z,7.17
2019-02-14T16:04:04.900Z,6.45
2019-02-14T16:06:34.055Z,5.87
2019-02-14T16:09:04.160Z,4.72
2019-02-14T16:11:34.010Z,4.20
2019-02-14T16:14:04.986Z,6.83
2019-02-14T16:16:35.120Z,6.95
2019-02-14T16:19:04.275Z,5.47
2019-02-14T16:21:33.802Z,5.42
2019-02-14T16:24:02.799Z,7.78
2019-02-14T16:26:31.901Z,6.92
2019-02-14T16:29:02.023Z,8.73
2019-02-14T16:31:31.968Z,7.15
2019-02-14T16:34:01.101Z,5.87
2019-02-14T16:36:32.387Z,6.55
2019-02-14T16:39:01.474Z,4.12
2019-02-14T16:41:30.610Z,5.40
2019-02-14T16:43:59.639Z,6.42
2019-02-14T16:46:28.824Z,7.85
2019-02-14T16:48:57.954Z,5.30
2019-02-14T16:51:27.152Z,6.22
2019-02-14T16:53:56.295Z,5.62
2019-02-14T16:56:25.328Z,4.97
2019-02-14T16:58:54.724Z,4.95
2019-02-14T17:01:28.163Z,5.33
2019-02-14T17:03:57.417Z,6.65
2019-02-14T17:06:26.505Z,7.12
2019-02-14T17:08:55.686Z,4.08
2019-02-14T17:11:24.717Z,4.55
2019-02-14T17:13:53.862Z,4.55
2019-02-14T17:16:22.846Z,9.23
2019-02-14T17:18:51.958Z,5.15
2019-02-14T17:21:20.967Z,8.75
2019-02-14T17:23:49.989Z,9.50
2019-02-14T17:26:19.298Z,7.20
2019-02-14T17:28:48.626Z,8.35
2019-02-14T17:31:17.710Z,7.45
2019-02-14T17:33:46.745Z,7.67
2019-02-14T17:36:15.854Z,5.90
2019-02-14T17:38:44.913Z,9.70
2019-02-14T17:41:13.997Z,7.70
2019-02-14T17:43:43.342Z,5.03
2019-02-14T17:46:14.906Z,8.33
2019-02-14T17:48:44.167Z,6.03
2019-02-14T17:51:13.484Z,6.72
2019-02-14T17:53:42.886Z,5.37
2019-02-14T17:56:12.295Z,4.78
2019-02-14T17:58:41.876Z,6.45
2019-02-14T18:01:11.230Z,5.95
2019-02-14T18:03:40.596Z,6.55
2019-02-14T18:06:10.322Z,8.00
2019-02-14T18:08:40.188Z,9.18
2019-02-14T18:11:09.576Z,7.70
2019-02-14T18:13:39.602Z,7.97
2019-02-14T18:16:10.360Z,6.50
2019-02-14T18:18:40.566Z,5.95
2019-02-14T18:21:10.285Z,6.83
2019-02-14T18:23:39.826Z,7.12
2019-02-14T18:26:09.453Z,8.43
2019-02-14T18:28:39.040Z,7.37
2019-02-14T18:31:09.567Z,7.30
2019-02-14T18:33:40.285Z,8.08
2019-02-14T18:36:10.007Z,7.03
2019-02-14T18:38:40.074Z,8.43
2019-02-14T18:41:09.993Z,4.97
2019-02-14T18:43:40.119Z,8.08
2019-02-14T18:46:10.566Z,7.67
2019-02-14T18:48:40.916Z,6.62
2019-02-14T18:51:11.015Z,5.45
2019-02-14T18:53:40.816Z,8.70
2019-02-14T18:56:11.093Z,6.00
2019-02-14T18:58:42.226Z,6.87
2019-02-14T19:01:12.958Z,6.40
2019-02-14T19:03:44.502Z,6.78
2019-02-14T19:06:16.731Z,7.28
2019-02-14T19:08:48.508Z,8.30
2019-02-14T19:11:25.294Z,6.42
2019-02-14T19:13:59.393Z,7.08
2019-02-14T19:16:32.594Z,6.65
2019-02-14T19:19:05.848Z,8.30
2019-02-14T19:21:37.836Z,6.83
2019-02-14T19:24:12.042Z,5.80
2019-02-14T19:26:45.247Z,6.05
2019-02-14T19:29:17.807Z,7.03
2019-02-14T19:31:49.715Z,8.43
2019-02-14T19:34:22.540Z,7.45
2019-02-14T19:36:55.213Z,9.28
2019-02-14T19:39:26.713Z,8.63
2019-02-14T19:41:58.180Z,7.55
2019-02-14T19:44:28.678Z,11.12
2019-02-14T19:47:02.845Z,8.90
2019-02-14T19:49:39.797Z,6.97
2019-02-14T19:52:12.589Z,7.00
2019-02-14T19:54:45.342Z,6.90
2019-02-14T19:57:16.733Z,6.10
2019-02-14T19:59:48.221Z,5.65
2019-02-14T20:02:31.476Z,8.20
2019-02-14T20:05:02.855Z,8.18
2019-02-14T20:07:36.431Z,7.10
2019-02-14T20:10:09.507Z,6.15
2019-02-14T20:12:40.361Z,6.80
2019-02-14T20:15:13.458Z,6.92
2019-02-14T20:17:43.556Z,6.87
2019-02-14T20:20:16.936Z,5.37
2019-02-14T20:22:47.405Z,5.08
2019-02-14T20:25:18.557Z,6.40
2019-02-14T20:27:49.974Z,10.63
2019-02-14T20:30:24.947Z,11.45
2019-02-14T20:33:03.936Z,10.63
2019-02-14T20:35:26.374Z,8.88
2019-02-14T20:37:56.545Z,8.80
2019-02-14T20:40:32.062Z,11.12
2019-02-14T20:43:01.913Z,10.05
2019-02-14T20:45:32.044Z,10.35
2019-02-14T20:48:01.620Z,9.98
2019-02-14T20:50:31.574Z,10.08
2019-02-14T20:53:00.928Z,12.15
2019-02-14T20:55:30.503Z,11.88
2019-02-14T20:58:00.056Z,9.05
2019-02-14T21:00:38.464Z,7.60
2019-02-14T21:03:08.034Z,12.37
2019-02-14T21:05:37.712Z,13.10
2019-02-14T21:08:07.286Z,8.70
2019-02-14T21:10:36.924Z,12.37
2019-02-14T21:13:06.203Z,15.08
2019-02-14T21:15:35.371Z,12.47
2019-02-14T21:18:04.704Z,14.53
2019-02-14T21:20:34.255Z,17.32
2019-02-14T21:23:03.560Z,14.35
2019-02-14T21:25:32.794Z,18.92
2019-02-14T21:28:01.945Z,13.80
2019-02-14T21:30:35.666Z,10.18
2019-02-14T21:33:02.815Z,8.45
2019-02-14T21:35:31.918Z,7.53
2019-02-14T21:38:01.017Z,7.35
2019-02-14T21:40:30.090Z,6.90
2019-02-14T21:42:59.084Z,9.28
2019-02-14T21:45:28.170Z,12.88
2019-02-14T21:47:57.181Z,14.00
2019-02-14T21:50:26.214Z,9.63
2019-02-14T21:52:55.241Z,8.18
2019-02-14T21:55:24.336Z,13.38
2019-02-14T21:57:53.495Z,13.68
2019-02-14T22:00:22.545Z,12.25
2019-02-14T22:02:51.598Z,13.53
2019-02-14T22:05:25.190Z,11.00
2019-02-14T22:07:51.377Z,10.25
2019-02-14T22:10:20.438Z,11.55
2019-02-14T22:12:49.801Z,10.70
2019-02-14T22:15:18.829Z,7.65
2019-02-14T22:17:47.881Z,8.03
2019-02-14T22:20:17.032Z,8.40
2019-02-14T22:22:46.028Z,7.10
2019-02-14T22:25:15.106Z,8.90
2019-02-14T22:27:44.118Z,6.90
2019-02-14T22:30:15.200Z,7.47
2019-02-14T22:32:44.299Z,7.15
2019-02-14T22:35:13.302Z,6.58
2019-02-14T22:37:42.307Z,8.48
2019-02-14T22:40:11.208Z,7.87
2019-02-14T22:42:46.632Z,9.33
2019-02-14T22:45:11.033Z,9.43
2019-02-14T22:47:40.049Z,13.18
2019-02-14T22:50:09.186Z,13.22
2019-02-14T22:52:38.311Z,10.15
2019-02-14T22:55:07.815Z,10.03
2019-02-14T22:57:36.776Z,13.05
2019-02-14T23:00:16.035Z,10.63
2019-02-14T23:02:45.021Z,9.85
2019-02-14T23:05:14.026Z,9.18
2019-02-14T23:07:43.052Z,8.88
2019-02-14T23:10:12.032Z,9.93
2019-02-14T23:12:41.011Z,9.70
2019-02-14T23:15:09.991Z,10.72
2019-02-14T23:17:39.064Z,8.48
2019-02-14T23:20:07.999Z,9.38
2019-02-14T23:22:36.990Z,8.53
2019-02-14T23:25:05.947Z,7.25
2019-02-14T23:27:34.893Z,14.25
2019-02-14T23:30:03.773Z,7.28
2019-02-14T23:32:32.686Z,9.85
2019-02-14T23:35:01.679Z,10.40
2019-02-14T23:37:30.687Z,11.63
2019-02-14T23:39:59.676Z,9.00
2019-02-14T23:42:28.697Z,9.65
2019-02-14T23:44:57.709Z,11.20
2019-02-14T23:47:26.739Z,11.75
2019-02-14T23:49:55.901Z,10.05
2019-02-14T23:52:24.930Z,13.05
2019-02-14T23:54:53.963Z,13.08
2019-02-14T23:57:23.029Z,13.83
2019-02-14T23:59:52.013Z,12.00
